Time;durP1;ratioP1;P1;durP2;ratioP2;P2;SDS_P1;SDS_P2;PMS_P1;PMS_P2;Temp;Humidity;BMP_temperature;BMP_pressure;BME280_temperature;BME280_humidity;BME280_pressure;Samples;Min_cycle;Max_cycle;Signal;HPM_P1;HPM_P2
2023/07/08 00:01:25;;;;;;;9.95;8.95;;;19.60;87.20;;;;;;4990056;28;20464;-46
2023/07/08 00:03:53;;;;;;;9.95;8.85;;;19.50;88.20;;;;;;4989189;28;20503;-45
2023/07/08 00:06:27;;;;;;;10.13;9.10;;;19.50;89.00;;;;;;4990853;28;20050;-42
2023/07/08 00:08:55;;;;;;;10.32;9.30;;;19.50;90.00;;;;;;4988936;28;20074;-44
2023/07/08 00:11:23;;;;;;;9.35;8.45;;;19.40;90.20;;;;;;4988839;28;20130;-47
2023/07/08 00:13:50;;;;;;;9.75;8.68;;;19.40;90.50;;;;;;4989033;28;20042;-50
2023/07/08 00:16:18;;;;;;;9.50;8.60;;;19.30;90.90;;;;;;4987418;28;20116;-46
2023/07/08 00:18:48;;;;;;;11.93;9.13;;;19.30;91.40;;;;;;4988923;28;20089;-42
2023/07/08 00:21:17;;;;;;;10.25;9.25;;;19.30;91.80;;;;;;4986353;28;20241;-45
2023/07/08 00:23:46;;;;;;;10.05;8.85;;;19.30;92.10;;;;;;4989054;28;20422;-45
2023/07/08 00:26:25;;;;;;;9.82;8.82;;;19.30;92.30;;;;;;4989169;28;20070;-46
2023/07/08 00:28:53;;;;;;;10.20;9.20;;;19.30;92.60;;;;;;4989290;28;20133;-43
2023/07/08 00:31:23;;;;;;;10.52;8.63;;;19.20;92.90;;;;;;4987877;28;20047;-43
2023/07/08 00:33:55;;;;;;;9.65;8.65;;;19.20;93.20;;;;;;4989431;28;20054;-41
2023/07/08 00:36:26;;;;;;;9.93;8.93;;;19.10;93.50;;;;;;4989278;28;20050;-45
2023/07/08 00:38:54;;;;;;;10.10;8.52;;;19.10;93.80;;;;;;4989959;28;20077;-47
2023/07/08 00:41:24;;;;;;;9.68;8.75;;;19.10;94.10;;;;;;4988902;28;20066;-45
2023/07/08 00:43:55;;;;;;;9.95;8.88;;;19.10;94.50;;;;;;4990249;28;20065;-44
2023/07/08 00:46:29;;;;;;;11.13;8.70;;;19.10;94.80;;;;;;4988985;28;20057;-48
2023/07/08 00:49:09;;;;;;;10.27;8.98;;;19.00;95.00;;;;;;4990009;28;20104;-42
2023/07/08 00:51:38;;;;;;;9.00;8.20;;;19.10;95.30;;;;;;4987604;28;20042;-47
2023/07/08 00:54:11;;;;;;;11.38;8.93;;;19.00;95.80;;;;;;4989802;28;20507;-49
2023/07/08 00:57:00;;;;;;;9.82;8.52;;;19.00;95.70;;;;;;4988019;28;20070;-44
2023/07/08 00:59:33;;;;;;;10.23;9.20;;;19.00;95.80;;;;;;4988397;28;20154;-44
2023/07/08 01:02:09;;;;;;;10.48;8.88;;;19.00;96.00;;;;;;4988412;28;20050;-44
2023/07/08 01:04:51;;;;;;;9.93;8.93;;;18.90;96.00;;;;;;4989115;28;20046;-49
2023/07/08 01:07:21;;;;;;;10.05;8.90;;;18.90;96.20;;;;;;4987641;28;20069;-46
2023/07/08 01:10:12;;;;;;;9.38;8.48;;;18.90;96.20;;;;;;4989636;28;20438;-46
2023/07/08 01:12:45;;;;;;;13.35;11.00;;;18.80;96.00;;;;;;4987681;28;20057;-48
2023/07/08 01:15:14;;;;;;;11.30;10.10;;;18.80;96.40;;;;;;4997828;28;20058;-41
2023/07/08 01:17:43;;;;;;;12.02;10.40;;;18.80;96.10;;;;;;4986457;28;20042;-48
2023/07/08 01:20:14;;;;;;;12.82;10.52;;;18.80;96.50;;;;;;4980733;28;20102;-44
2023/07/08 01:22:43;;;;;;;11.23;9.65;;;18.80;96.70;;;;;;4988952;28;20454;-43
2023/07/08 01:25:13;;;;;;;14.05;10.23;;;18.80;96.90;;;;;;4984480;28;20054;-44
2023/07/08 01:27:45;;;;;;;14.52;9.45;;;18.70;97.00;;;;;;4985753;28;20419;-43
2023/07/08 01:30:14;;;;;;;12.50;9.50;;;18.70;97.10;;;;;;4987224;28;20526;-45
2023/07/08 01:32:48;;;;;;;13.80;9.45;;;18.70;97.10;;;;;;4989092;28;20141;-47
2023/07/08 01:35:17;;;;;;;12.07;9.77;;;18.70;97.30;;;;;;4986903;28;20054;-44
2023/07/08 01:37:52;;;;;;;13.45;10.02;;;18.70;97.40;;;;;;4987423;28;20058;-43
2023/07/08 01:40:19;;;;;;;13.70;9.38;;;18.60;97.40;;;;;;4985916;28;20138;-44
2023/07/08 01:42:47;;;;;;;12.70;10.15;;;18.60;97.50;;;;;;4985612;28;20426;-47
2023/07/08 01:45:16;;;;;;;12.45;9.20;;;18.60;97.90;;;;;;4988562;28;20074;-44
2023/07/08 01:47:49;;;;;;;13.40;9.63;;;18.60;98.00;;;;;;4988557;28;20124;-44
2023/07/08 01:50:18;;;;;;;12.02;9.77;;;18.60;98.30;;;;;;4991506;28;20073;-45
2023/07/08 01:52:48;;;;;;;13.07;9.40;;;18.60;98.40;;;;;;4980446;28;20073;-41
2023/07/08 01:55:15;;;;;;;14.35;9.60;;;18.60;98.40;;;;;;5027971;22;20066;-44
2023/07/08 01:57:43;;;;;;;11.30;8.73;;;18.60;98.50;;;;;;5040241;28;20080;-40
2023/07/08 02:00:10;;;;;;;13.82;9.55;;;18.60;98.60;;;;;;5032250;28;20038;-38
2023/07/08 02:02:40;;;;;;;11.55;9.20;;;18.60;98.60;;;;;;5034725;28;20037;-40
2023/07/08 02:05:08;;;;;;;10.02;8.93;;;18.60;98.60;;;;;;5022390;28;20410;-38
2023/07/08 02:07:35;;;;;;;10.25;8.77;;;18.60;98.50;;;;;;5025995;28;20041;-41
2023/07/08 02:10:04;;;;;;;10.68;9.25;;;18.60;98.50;;;;;;5049728;28;20057;-41
2023/07/08 02:12:33;;;;;;;9.60;8.60;;;18.60;98.30;;;;;;5027146;28;20140;-40
2023/07/08 02:15:01;;;;;;;9.10;8.23;;;18.50;98.20;;;;;;5025013;28;20053;-38
2023/07/08 02:17:31;;;;;;;9.50;8.50;;;18.50;98.30;;;;;;5016912;28;20532;-42
2023/07/08 02:19:58;;;;;;;9.95;8.95;;;18.50;98.50;;;;;;5036559;28;20397;-41
2023/07/08 02:22:26;;;;;;;11.38;8.77;;;18.40;98.80;;;;;;5030878;28;20083;-40
2023/07/08 02:24:53;;;;;;;10.23;9.23;;;18.40;99.10;;;;;;5020678;28;20053;-38
2023/07/08 02:27:20;;;;;;;9.93;8.93;;;18.40;99.20;;;;;;5024913;28;20457;-38
2023/07/08 02:29:47;;;;;;;10.35;9.30;;;18.40;99.50;;;;;;5027078;28;20068;-39
2023/07/08 02:32:15;;;;;;;12.85;9.35;;;18.30;99.70;;;;;;5024004;28;20049;-41
2023/07/08 02:34:42;;;;;;;10.63;9.52;;;18.20;99.80;;;;;;5016027;28;20049;-40
2023/07/08 02:37:10;;;;;;;11.50;9.60;;;18.20;99.90;;;;;;5018171;28;20153;-39
2023/07/08 02:39:37;;;;;;;10.38;9.25;;;18.20;99.90;;;;;;5019933;28;20093;-42
2023/07/08 02:42:04;;;;;;;10.63;8.95;;;18.20;99.90;;;;;;5037881;28;20046;-40
2023/07/08 02:44:31;;;;;;;9.77;8.65;;;18.10;99.90;;;;;;5029420;28;20049;-40
2023/07/08 02:47:00;;;;;;;10.38;9.00;;;18.10;99.90;;;;;;5019983;28;20061;-40
2023/07/08 02:49:27;;;;;;;10.45;8.75;;;18.10;99.90;;;;;;5017370;28;20046;-40
2023/07/08 02:51:55;;;;;;;9.70;8.70;;;18.00;99.90;;;;;;5021013;28;20041;-39
2023/07/08 02:54:22;;;;;;;10.40;8.77;;;18.00;99.90;;;;;;5032335;28;20103;-39
2023/07/08 02:56:49;;;;;;;9.48;8.48;;;18.00;99.90;;;;;;5025627;28;20072;-40
2023/07/08 02:59:17;;;;;;;9.43;8.50;;;17.90;99.90;;;;;;5018683;28;20478;-40
2023/07/08 03:01:46;;;;;;;11.45;9.50;;;17.90;99.90;;;;;;5034041;28;20042;-42
2023/07/08 03:04:14;;;;;;;9.52;8.63;;;17.80;99.90;;;;;;5022806;28;20069;-39
2023/07/08 03:06:43;;;;;;;9.85;8.85;;;17.80;99.90;;;;;;5028026;28;20050;-42
2023/07/08 03:09:12;;;;;;;10.32;8.98;;;17.80;99.90;;;;;;5037633;28;20065;-41
2023/07/08 03:11:39;;;;;;;9.77;8.88;;;17.70;99.90;;;;;;5019917;28;20113;-42
2023/07/08 03:14:08;;;;;;;10.73;9.63;;;17.70;99.90;;;;;;5018871;28;20395;-39
2023/07/08 03:16:36;;;;;;;10.35;9.30;;;17.60;99.90;;;;;;5046998;28;20133;-40
2023/07/08 03:19:04;;;;;;;10.48;9.38;;;17.70;99.90;;;;;;5029086;28;20119;-39
2023/07/08 03:21:31;;;;;;;10.88;9.43;;;17.70;99.90;;;;;;5017535;28;20046;-42
2023/07/08 03:23:59;;;;;;;9.82;8.88;;;17.60;99.90;;;;;;5024207;28;20414;-38
2023/07/08 03:26:27;;;;;;;10.98;9.13;;;17.60;99.90;;;;;;5025256;28;20515;-40
2023/07/08 03:28:59;;;;;;;10.27;8.93;;;17.60;99.90;;;;;;5041408;28;20115;-38
2023/07/08 03:31:27;;;;;;;10.38;9.32;;;17.60;99.90;;;;;;5019697;28;20045;-40
2023/07/08 03:33:56;;;;;;;10.48;9.10;;;17.60;99.90;;;;;;5024688;28;20071;-40
2023/07/08 03:36:23;;;;;;;9.57;8.60;;;17.60;99.90;;;;;;5025034;28;20161;-40
2023/07/08 03:38:52;;;;;;;10.93;8.73;;;17.60;99.90;;;;;;5041329;28;20039;-41
2023/07/08 03:41:20;;;;;;;10.90;9.32;;;17.60;99.90;;;;;;5017011;28;20091;-40
2023/07/08 03:43:50;;;;;;;10.57;9.48;;;17.60;99.90;;;;;;5017197;28;20038;-43
2023/07/08 03:46:20;;;;;;;10.43;9.35;;;17.70;99.90;;;;;;5014857;28;20048;-39
2023/07/08 03:48:48;;;;;;;9.82;8.80;;;17.70;99.90;;;;;;5026647;28;20036;-41
2023/07/08 03:51:27;;;;;;;10.63;9.25;;;17.70;99.90;;;;;;5016429;28;20499;-38
2023/07/08 03:53:54;;;;;;;10.15;8.88;;;17.70;99.90;;;;;;5018830;28;20074;-39
2023/07/08 03:56:23;;;;;;;9.88;8.90;;;17.70;99.90;;;;;;5012911;28;20515;-40
2023/07/08 03:58:51;;;;;;;10.38;9.38;;;17.70;99.90;;;;;;5015258;28;20052;-40
2023/07/08 04:01:23;;;;;;;9.93;8.98;;;17.80;99.90;;;;;;5028566;28;20095;-38
2023/07/08 04:03:56;;;;;;;11.05;9.43;;;17.80;99.90;;;;;;5011560;28;20041;-39
2023/07/08 04:06:25;;;;;;;9.70;8.50;;;17.80;99.90;;;;;;5021487;28;20465;-37
2023/07/08 04:08:53;;;;;;;10.52;9.30;;;17.90;99.90;;;;;;5029012;28;20705;-40
2023/07/08 04:11:22;;;;;;;10.18;9.05;;;18.00;99.90;;;;;;5014645;28;20050;-41
2023/07/08 04:13:50;;;;;;;10.10;8.57;;;18.00;99.90;;;;;;5024279;28;20065;-41
2023/07/08 04:16:25;;;;;;;9.95;8.95;;;18.10;99.90;;;;;;5020674;28;20054;-43
2023/07/08 04:18:53;;;;;;;11.82;9.57;;;18.20;99.90;;;;;;5020106;28;20293;-42
2023/07/08 04:21:22;;;;;;;11.02;8.85;;;18.20;99.90;;;;;;5016692;28;20049;-37
2023/07/08 04:23:49;;;;;;;10.73;9.27;;;18.20;99.90;;;;;;5026996;28;20533;-41
2023/07/08 04:26:18;;;;;;;11.55;8.90;;;18.30;99.90;;;;;;5015143;28;20073;-42
2023/07/08 04:28:46;;;;;;;10.20;9.20;;;18.40;99.90;;;;;;5019122;28;20037;-42
2023/07/08 04:31:14;;;;;;;10.15;8.77;;;18.40;99.90;;;;;;5019985;28;20510;-41
2023/07/08 04:33:41;;;;;;;10.60;9.35;;;18.40;99.90;;;;;;5021464;28;20052;-40
2023/07/08 04:36:12;;;;;;;11.05;8.73;;;18.50;99.90;;;;;;5018246;28;20501;-40
2023/07/08 04:38:41;;;;;;;12.70;9.52;;;18.60;99.90;;;;;;5024661;28;20073;-41
2023/07/08 04:41:09;;;;;;;12.30;9.40;;;18.60;99.90;;;;;;5018980;28;20042;-39
2023/07/08 04:43:36;;;;;;;10.30;9.32;;;18.70;99.90;;;;;;5019541;28;20066;-44
2023/07/08 04:46:06;;;;;;;11.43;9.27;;;18.70;99.90;;;;;;5021929;28;20049;-40
2023/07/08 04:48:33;;;;;;;12.52;9.48;;;18.80;99.90;;;;;;5012528;28;20042;-42
2023/07/08 04:51:00;;;;;;;13.20;10.07;;;18.90;99.90;;;;;;5016622;28;20164;-44
2023/07/08 04:53:28;;;;;;;10.60;9.43;;;18.90;99.90;;;;;;5017469;28;20136;-41
2023/07/08 04:55:56;;;;;;;12.38;9.65;;;19.00;99.90;;;;;;5020562;28;20080;-41
2023/07/08 04:58:23;;;;;;;10.32;9.23;;;19.00;99.90;;;;;;5022086;28;20145;-40
2023/07/08 05:00:50;;;;;;;10.63;9.02;;;19.10;99.90;;;;;;5021718;28;20042;-41
2023/07/08 05:03:18;;;;;;;11.45;10.25;;;19.20;99.90;;;;;;5014461;28;20096;-41
2023/07/08 05:05:45;;;;;;;13.98;12.48;;;19.30;99.90;;;;;;5013716;28;20041;-41
2023/07/08 05:08:13;;;;;;;19.33;14.18;;;19.30;99.90;;;;;;5017840;28;20042;-39
2023/07/08 05:10:40;;;;;;;20.25;16.27;;;19.50;99.90;;;;;;5019050;28;20062;-44
2023/07/08 05:13:07;;;;;;;11.80;10.32;;;19.60;99.90;;;;;;5027564;28;20056;-41
2023/07/08 05:15:35;;;;;;;11.65;10.38;;;19.60;99.90;;;;;;5023063;28;20046;-39
2023/07/08 05:18:02;;;;;;;11.38;10.18;;;19.70;99.90;;;;;;5024066;28;20058;-41
2023/07/08 05:20:32;;;;;;;19.50;16.02;;;19.80;99.90;;;;;;5020792;28;20046;-42
2023/07/08 05:23:00;;;;;;;13.13;11.77;;;19.90;99.90;;;;;;5015908;28;20332;-42
2023/07/08 05:25:27;;;;;;;12.48;11.15;;;20.00;99.90;;;;;;5024713;28;20042;-40
2023/07/08 05:27:54;;;;;;;16.13;13.80;;;20.20;99.90;;;;;;5020943;28;20077;-40
2023/07/08 05:30:22;;;;;;;18.80;16.67;;;20.20;99.90;;;;;;5016028;28;20396;-43
2023/07/08 05:32:49;;;;;;;13.35;11.95;;;20.30;99.90;;;;;;5031620;28;20056;-44
2023/07/08 05:35:17;;;;;;;16.90;11.73;;;20.40;99.90;;;;;;5033343;28;20144;-42
2023/07/08 05:37:46;;;;;;;11.63;10.43;;;20.50;99.90;;;;;;5032779;28;20083;-43
2023/07/08 05:40:15;;;;;;;11.90;10.30;;;20.60;99.90;;;;;;5029831;28;20046;-44
2023/07/08 05:42:42;;;;;;;11.55;10.27;;;20.70;99.90;;;;;;5029951;28;20050;-44
2023/07/08 05:45:10;;;;;;;11.07;9.85;;;20.90;99.90;;;;;;5026080;28;20418;-42
2023/07/08 05:47:38;;;;;;;10.70;9.57;;;21.00;99.90;;;;;;5017533;28;20115;-41
2023/07/08 05:50:06;;;;;;;10.38;9.38;;;21.00;99.90;;;;;;5023417;28;20052;-42
2023/07/08 05:52:33;;;;;;;11.38;9.40;;;21.00;99.90;;;;;;5018402;28;20049;-45
2023/07/08 05:55:00;;;;;;;10.32;9.25;;;21.00;99.90;;;;;;5023646;28;20054;-43
2023/07/08 05:57:28;;;;;;;11.32;8.88;;;21.20;99.90;;;;;;5020505;28;20057;-45
2023/07/08 05:59:55;;;;;;;10.60;9.50;;;21.20;99.90;;;;;;5017008;28;20060;-41
2023/07/08 06:02:25;;;;;;;11.25;9.00;;;21.30;99.90;;;;;;5019612;28;20109;-44
2023/07/08 06:04:53;;;;;;;10.98;9.52;;;21.30;99.90;;;;;;5023035;28;20348;-42
2023/07/08 06:07:20;;;;;;;10.15;9.15;;;21.40;99.90;;;;;;5015692;28;20041;-45
2023/07/08 06:09:47;;;;;;;10.10;9.10;;;21.50;99.90;;;;;;5015515;28;20092;-43
2023/07/08 06:12:15;;;;;;;10.82;8.80;;;21.60;99.90;;;;;;5022121;28;20046;-43
2023/07/08 06:14:42;;;;;;;11.02;9.00;;;21.70;99.90;;;;;;5014207;28;20546;-43
2023/07/08 06:17:09;;;;;;;11.15;9.43;;;21.80;99.90;;;;;;5019098;28;20042;-42
2023/07/08 06:19:37;;;;;;;10.90;9.80;;;21.80;99.90;;;;;;5020007;28;20057;-44
2023/07/08 06:22:04;;;;;;;10.05;9.05;;;21.90;99.90;;;;;;5032022;28;20115;-42
2023/07/08 06:24:52;;;;;;;9.15;8.25;;;22.00;99.90;;;;;;5025414;28;20044;-44
2023/07/08 06:27:19;;;;;;;9.68;8.40;;;22.10;99.90;;;;;;5020742;28;20116;-38
2023/07/08 06:29:46;;;;;;;9.02;8.15;;;22.10;99.90;;;;;;5019563;28;20038;-43
2023/07/08 06:32:14;;;;;;;9.80;8.90;;;22.20;99.90;;;;;;5021230;28;20034;-43
2023/07/08 06:34:41;;;;;;;11.70;8.65;;;22.30;99.90;;;;;;5016970;28;20400;-40
2023/07/08 06:37:08;;;;;;;10.20;9.20;;;22.40;99.90;;;;;;5026175;28;20406;-39
2023/07/08 06:39:36;;;;;;;12.57;8.70;;;22.40;99.90;;;;;;5023579;28;20052;-43
2023/07/08 06:42:06;;;;;;;9.98;8.98;;;22.50;99.90;;;;;;5019997;28;20049;-43
2023/07/08 06:44:33;;;;;;;11.30;8.77;;;22.60;99.90;;;;;;5029061;28;20041;-43
2023/07/08 06:47:01;;;;;;;10.13;9.07;;;22.70;99.90;;;;;;5024392;28;20053;-43
2023/07/08 06:49:28;;;;;;;9.88;8.88;;;22.80;99.90;;;;;;5027598;28;20042;-41
2023/07/08 06:51:57;;;;;;;10.93;8.63;;;22.90;99.90;;;;;;5031213;28;20489;-43
2023/07/08 06:54:25;;;;;;;9.95;8.98;;;23.00;99.90;;;;;;5021455;28;20054;-42
2023/07/08 06:56:52;;;;;;;10.00;9.00;;;23.10;99.90;;;;;;5023918;28;20082;-43
2023/07/08 06:59:19;;;;;;;10.80;9.40;;;23.20;99.90;;;;;;5031212;28;20384;-41
2023/07/08 07:01:47;;;;;;;10.00;8.60;;;23.30;99.90;;;;;;5027953;28;20049;-41
2023/07/08 07:04:14;;;;;;;11.18;8.80;;;23.40;99.90;;;;;;5022659;28;20077;-42
2023/07/08 07:06:41;;;;;;;11.48;8.82;;;23.40;99.90;;;;;;5024161;28;20457;-42
2023/07/08 07:09:09;;;;;;;9.90;8.90;;;23.60;99.90;;;;;;5027402;28;20079;-40
2023/07/08 07:11:36;;;;;;;11.90;9.10;;;23.70;99.90;;;;;;5034579;28;20061;-44
2023/07/08 07:14:03;;;;;;;11.95;9.15;;;23.80;99.90;;;;;;5023412;28;20077;-45
2023/07/08 07:16:50;;;;;;;9.60;8.52;;;23.90;99.90;;;;;;5028647;28;20128;-44
2023/07/08 07:19:24;;;;;;;9.85;8.95;;;24.10;99.90;;;;;;5029934;28;20037;-44
2023/07/08 07:21:51;;;;;;;10.05;8.77;;;24.20;99.90;;;;;;5023564;28;20049;-43
2023/07/08 07:24:19;;;;;;;9.63;8.63;;;24.30;99.90;;;;;;5018532;28;20058;-42
2023/07/08 07:26:47;;;;;;;9.45;8.40;;;24.40;99.30;;;;;;5016250;28;20045;-40
2023/07/08 07:29:17;;;;;;;11.32;8.38;;;24.50;98.70;;;;;;5013719;28;20076;-41
2023/07/08 07:31:47;;;;;;;11.70;8.60;;;24.70;98.20;;;;;;5017312;28;20037;-39
2023/07/08 07:34:15;;;;;;;9.43;8.45;;;24.70;97.90;;;;;;5015030;28;20050;-42
2023/07/08 07:36:42;;;;;;;13.00;8.77;;;24.90;97.70;;;;;;5019279;28;20049;-43
2023/07/08 07:39:09;;;;;;;11.10;7.75;;;25.00;97.70;;;;;;5017812;28;20054;-40
2023/07/08 07:41:37;;;;;;;9.85;7.88;;;25.10;97.30;;;;;;5019233;28;20140;-43
2023/07/08 07:44:04;;;;;;;8.73;7.78;;;25.20;97.10;;;;;;5020833;28;20125;-42
2023/07/08 07:46:31;;;;;;;8.98;8.07;;;25.30;96.60;;;;;;5027827;28;20103;-42
2023/07/08 07:48:59;;;;;;;11.52;8.40;;;25.50;96.30;;;;;;5030405;28;20510;-43
2023/07/08 07:51:27;;;;;;;9.30;8.40;;;25.50;95.90;;;;;;5029180;28;20042;-43
2023/07/08 07:53:54;;;;;;;9.70;7.78;;;25.60;94.60;;;;;;5021377;28;20054;-44
2023/07/08 07:56:21;;;;;;;10.20;8.00;;;25.70;93.60;;;;;;5043524;22;20135;-46
2023/07/08 07:58:52;;;;;;;9.02;8.13;;;25.80;93.20;;;;;;5013983;28;20048;-45
2023/07/08 08:01:19;;;;;;;9.77;7.95;;;25.80;92.80;;;;;;5012688;28;20533;-44
2023/07/08 08:03:50;;;;;;;12.68;8.25;;;26.00;92.80;;;;;;5012997;28;20038;-42
2023/07/08 08:06:18;;;;;;;11.00;7.78;;;26.10;92.50;;;;;;5021031;28;20077;-46
2023/07/08 08:08:46;;;;;;;11.15;8.35;;;26.20;92.00;;;;;;5020231;28;20230;-47
2023/07/08 08:11:13;;;;;;;9.65;7.90;;;26.30;91.80;;;;;;5022559;28;20121;-46
2023/07/08 08:13:41;;;;;;;9.05;7.82;;;26.30;91.40;;;;;;5018321;28;20136;-44
2023/07/08 08:16:09;;;;;;;9.63;7.78;;;26.40;91.00;;;;;;5026741;28;20144;-45
2023/07/08 08:18:36;;;;;;;11.07;8.20;;;26.50;91.20;;;;;;5015785;28;20140;-44
2023/07/08 08:21:03;;;;;;;9.30;8.10;;;26.70;90.90;;;;;;5016540;28;20565;-46
2023/07/08 08:23:30;;;;;;;8.98;8.07;;;26.80;90.00;;;;;;5026641;28;20499;-46
2023/07/08 08:25:58;;;;;;;9.40;8.00;;;26.90;88.70;;;;;;5025272;28;20137;-44
2023/07/08 08:28:26;;;;;;;9.77;7.78;;;27.00;88.50;;;;;;5020643;28;20045;-46
2023/07/08 08:30:54;;;;;;;10.10;8.30;;;27.00;88.30;;;;;;5020998;28;20041;-48
2023/07/08 08:33:21;;;;;;;8.98;8.07;;;27.20;87.40;;;;;;5016516;28;20050;-43
2023/07/08 08:35:48;;;;;;;9.68;8.13;;;27.30;86.70;;;;;;5028175;28;20044;-44
2023/07/08 08:38:17;;;;;;;9.00;8.13;;;27.30;85.50;;;;;;5018791;28;20049;-47
2023/07/08 08:40:45;;;;;;;8.85;7.95;;;27.30;84.80;;;;;;5017535;28;20050;-43
2023/07/08 08:43:35;;;;;;;11.50;8.30;;;27.40;84.60;;;;;;5022268;28;20041;-50
2023/07/08 08:46:13;;;;;;;9.27;7.82;;;27.50;84.80;;;;;;5020033;28;20049;-43
2023/07/08 08:49:11;;;;;;;11.45;8.27;;;27.60;83.90;;;;;;5023458;28;20083;-44
2023/07/08 08:51:38;;;;;;;9.55;7.35;;;27.70;83.20;;;;;;5021821;28;20061;-44
2023/07/08 08:54:08;;;;;;;8.73;7.82;;;27.80;82.10;;;;;;5011428;28;20338;-46
2023/07/08 08:56:47;;;;;;;8.13;7.40;;;28.00;80.30;;;;;;5007933;28;20085;-44
2023/07/08 08:59:20;;;;;;;8.98;7.85;;;28.10;77.00;;;;;;5017552;28;20279;-44
2023/07/08 09:01:48;;;;;;;9.02;8.13;;;28.30;74.80;;;;;;5019871;28;20037;-44
2023/07/08 09:04:22;;;;;;;8.90;8.00;;;28.30;73.70;;;;;;5026555;28;20132;-45
2023/07/08 09:06:52;;;;;;;9.90;7.70;;;28.30;71.30;;;;;;5023971;28;20050;-47
2023/07/08 09:09:32;;;;;;;9.18;8.27;;;28.40;70.70;;;;;;5024665;28;20033;-45
2023/07/08 09:12:16;;;;;;;21.15;18.88;;;28.50;69.70;;;;;;5030124;28;20136;-44
2023/07/08 09:14:46;;;;;;;8.80;7.90;;;28.70;69.10;;;;;;5024140;28;20045;-49
2023/07/08 09:17:32;;;;;;;11.40;7.45;;;28.70;67.30;;;;;;5029106;28;20510;-48
2023/07/08 09:20:03;;;;;;;8.45;7.65;;;28.80;66.50;;;;;;5029750;28;20079;-48
2023/07/08 09:22:33;;;;;;;10.40;7.90;;;28.90;66.00;;;;;;5025596;28;20068;-45
2023/07/08 09:25:03;;;;;;;8.50;7.63;;;29.00;65.80;;;;;;5024653;28;20143;-44
2023/07/08 09:27:31;;;;;;;8.07;7.28;;;29.10;64.00;;;;;;5029115;28;20148;-46
2023/07/08 09:29:58;;;;;;;8.70;7.53;;;29.10;63.60;;;;;;5022912;28;20479;-45
2023/07/08 09:32:27;;;;;;;8.77;7.85;;;29.20;64.40;;;;;;5023456;28;20041;-47
2023/07/08 09:35:02;;;;;;;9.02;8.13;;;29.30;63.10;;;;;;5028741;28;20107;-49
2023/07/08 09:37:31;;;;;;;8.38;7.53;;;29.50;62.80;;;;;;5026173;28;20057;-46
2023/07/08 09:40:00;;;;;;;8.90;8.00;;;29.50;61.80;;;;;;5030508;28;20115;-47
2023/07/08 09:42:31;;;;;;;10.05;7.80;;;29.60;60.60;;;;;;5030554;28;20053;-49
2023/07/08 09:45:11;;;;;;;9.20;7.78;;;29.80;58.60;;;;;;5032914;28;20061;-49
2023/07/08 09:47:40;;;;;;;11.73;9.65;;;29.80;57.30;;;;;;5033028;28;20486;-47
2023/07/08 09:50:22;;;;;;;8.52;7.30;;;29.90;57.10;;;;;;5026481;28;20049;-45
2023/07/08 09:53:04;;;;;;;8.80;7.90;;;30.10;56.60;;;;;;5027748;28;20044;-46
2023/07/08 09:55:32;;;;;;;9.90;7.72;;;30.10;55.80;;;;;;5031551;28;20136;-48
2023/07/08 09:58:01;;;;;;;8.35;7.55;;;30.20;55.60;;;;;;5020823;28;20069;-45
2023/07/08 10:00:38;;;;;;;8.20;7.40;;;30.30;55.30;;;;;;5032760;28;20104;-48
2023/07/08 10:03:20;;;;;;;9.60;7.57;;;30.40;55.20;;;;;;5024140;28;20125;-46
2023/07/08 10:05:47;;;;;;;;;;;30.40;56.20;;;;;;5025713;28;20128;-46
2023/07/08 10:08:20;;;;;;;8.75;7.85;;;30.60;56.50;;;;;;5027392;28;20500;-46
2023/07/08 10:11:23;;;;;;;10.52;7.82;;;30.60;55.80;;;;;;5031046;28;20033;-47
2023/07/08 10:13:53;;;;;;;9.95;7.82;;;30.80;56.10;;;;;;4978616;28;20050;-47
2023/07/08 10:16:40;;;;;;;8.63;7.70;;;31.10;55.80;;;;;;5019814;28;20041;-45
2023/07/08 10:19:16;;;;;;;8.23;7.40;;;31.20;55.10;;;;;;5020699;28;20045;-45
2023/07/08 10:22:01;;;;;;;8.65;7.85;;;31.40;55.20;;;;;;5025166;28;20431;-47
2023/07/08 10:24:41;;;;;;;8.50;7.53;;;31.60;54.40;;;;;;5031728;28;20095;-48
2023/07/08 10:27:19;;;;;;;8.30;7.50;;;31.70;54.30;;;;;;5029978;28;20050;-45
2023/07/08 10:30:13;;;;;;;9.45;7.72;;;31.90;53.90;;;;;;5016930;28;20057;-47
2023/07/08 10:33:02;;;;;;;8.88;7.53;;;32.20;53.20;;;;;;5019923;28;20049;-46
2023/07/08 10:35:35;;;;;;;8.52;7.72;;;32.40;53.20;;;;;;5029144;28;20053;-48
2023/07/08 10:38:46;;;;;;;8.40;7.53;;;32.60;53.20;;;;;;5027441;28;20054;-43
2023/07/08 10:41:35;;;;;;;9.57;7.70;;;32.60;52.50;;;;;;4996890;28;20136;-47
2023/07/08 10:44:33;;;;;;;8.25;7.45;;;32.80;51.50;;;;;;5026367;28;20080;-47
2023/07/08 10:47:25;;;;;;;10.13;7.95;;;33.00;51.40;;;;;;4982675;28;20511;-46
2023/07/08 10:50:05;;;;;;;9.00;8.20;;;33.10;51.30;;;;;;4987698;28;20558;-45
2023/07/08 10:52:53;;;;;;;8.73;7.93;;;33.20;50.80;;;;;;4986689;28;20097;-48
2023/07/08 10:55:41;;;;;;;8.65;7.32;;;33.50;50.80;;;;;;4980251;28;20128;-48
2023/07/08 10:58:14;;;;;;;8.50;7.70;;;33.40;50.50;;;;;;4980957;28;20134;-49
2023/07/08 11:00:50;;;;;;;8.73;7.72;;;33.60;50.70;;;;;;4981893;28;20113;-52
2023/07/08 11:03:29;;;;;;;10.32;9.23;;;33.90;50.50;;;;;;4977514;28;20046;-48
2023/07/08 11:06:04;;;;;;;11.60;10.50;;;33.80;50.20;;;;;;4984680;28;20549;-49
2023/07/08 11:09:02;;;;;;;10.23;8.10;;;34.00;50.60;;;;;;4981860;28;20043;-44
2023/07/08 11:11:29;;;;;;;10.88;8.05;;;34.10;49.80;;;;;;4962228;28;20042;-45
2023/07/08 11:14:15;;;;;;;9.15;8.32;;;34.40;49.20;;;;;;4982853;28;20061;-45
2023/07/08 11:17:18;;;;;;;8.98;8.07;;;34.60;49.20;;;;;;4979448;28;20535;-43
2023/07/08 11:20:10;;;;;;;12.77;8.43;;;34.70;48.80;;;;;;4981940;28;20049;-41
2023/07/08 11:22:48;;;;;;;8.52;7.72;;;34.90;48.80;;;;;;4980551;28;20047;-47
2023/07/08 11:25:21;;;;;;;8.73;7.82;;;35.20;48.30;;;;;;5015936;28;20162;-43
2023/07/08 11:27:54;;;;;;;8.98;8.07;;;35.20;48.30;;;;;;4998028;28;20041;-36
2023/07/08 11:30:25;;;;;;;8.68;7.88;;;35.50;47.60;;;;;;4968202;28;20049;-41
2023/07/08 11:33:03;;;;;;;9.30;7.55;;;35.90;46.90;;;;;;4973756;28;20090;-40
2023/07/08 11:35:36;;;;;;;10.30;8.68;;;36.10;46.90;;;;;;5022091;28;20586;-40
2023/07/08 11:38:04;;;;;;;8.40;7.53;;;36.20;46.20;;;;;;5029252;22;20529;-67
2023/07/08 11:40:37;;;;;;;10.38;7.82;;;36.30;46.30;;;;;;5014683;28;20053;-65
2023/07/08 11:43:06;;;;;;;8.55;7.75;;;36.40;46.10;;;;;;5025701;28;20061;-66
2023/07/08 11:45:38;;;;;;;8.35;7.35;;;36.10;46.20;;;;;;5025809;28;20512;-65
2023/07/08 11:48:13;;;;;;;9.40;8.23;;;36.20;46.10;;;;;;5019617;28;20045;-66
2023/07/08 11:50:43;;;;;;;8.98;8.07;;;36.00;46.10;;;;;;5020747;28;20064;-66
2023/07/08 11:53:14;;;;;;;11.18;10.02;;;36.10;46.00;;;;;;5022095;28;20069;-65
2023/07/08 11:55:55;;;;;;;9.70;7.53;;;36.30;46.00;;;;;;5015643;28;20069;-67
2023/07/08 11:58:30;;;;;;;8.20;7.40;;;35.90;45.70;;;;;;5015851;28;20053;-65
2023/07/08 12:00:59;;;;;;;8.60;7.80;;;36.30;46.20;;;;;;4976604;28;20054;-64
2023/07/08 12:03:34;;;;;;;8.38;7.57;;;36.40;45.60;;;;;;4981042;28;20042;-63
2023/07/08 12:06:06;;;;;;;8.45;7.70;;;37.00;45.20;;;;;;4984919;28;20038;-66
2023/07/08 12:08:40;;;;;;;8.65;7.85;;;37.50;45.10;;;;;;4987002;28;20572;-61
2023/07/08 12:11:12;;;;;;;9.40;8.00;;;38.00;44.60;;;;;;4984038;28;20053;-64
2023/07/08 12:13:40;;;;;;;9.50;7.60;;;38.30;44.00;;;;;;4982250;28;20129;-64
2023/07/08 12:16:11;;;;;;;9.48;8.05;;;38.30;44.00;;;;;;4981565;28;20057;-64
2023/07/08 12:18:45;;;;;;;8.63;7.65;;;38.50;43.50;;;;;;4988204;28;20081;-63
2023/07/08 12:21:14;;;;;;;8.95;7.72;;;38.60;43.50;;;;;;4990145;28;20054;-63
2023/07/08 12:23:47;;;;;;;8.25;7.45;;;38.50;43.20;;;;;;4980568;28;20164;-64
2023/07/08 12:26:16;;;;;;;8.10;7.30;;;38.80;42.80;;;;;;4978636;28;20114;-64
2023/07/08 12:28:44;;;;;;;8.30;7.40;;;39.20;42.60;;;;;;4975021;28;20130;-61
2023/07/08 12:31:20;;;;;;;8.55;7.78;;;39.30;42.10;;;;;;4981772;28;20047;-66
2023/07/08 12:33:48;;;;;;;8.77;7.75;;;38.90;42.30;;;;;;4985344;28;20477;-65
2023/07/08 12:36:28;;;;;;;12.13;8.25;;;39.20;41.90;;;;;;4987510;28;20532;-65
2023/07/08 12:38:58;;;;;;;8.37;7.57;;;39.50;42.00;;;;;;4985086;28;20085;-65
2023/07/08 12:41:32;;;;;;;8.45;7.57;;;39.80;41.70;;;;;;4987868;28;20057;-63
2023/07/08 12:44:01;;;;;;;10.40;9.30;;;40.00;41.20;;;;;;4979296;28;20049;-63
2023/07/08 12:46:29;;;;;;;9.35;8.45;;;40.40;40.80;;;;;;4979517;28;20046;-64
2023/07/08 12:48:56;;;;;;;9.70;7.90;;;40.40;40.60;;;;;;4987861;28;20042;-65
2023/07/08 12:51:26;;;;;;;9.85;7.85;;;40.60;40.30;;;;;;4981363;28;20042;-62
2023/07/08 12:53:54;;;;;;;8.40;7.63;;;41.00;40.10;;;;;;4984981;28;20050;-63
2023/07/08 12:56:24;;;;;;;9.77;8.05;;;41.10;39.90;;;;;;4990094;28;20042;-65
2023/07/08 12:58:54;;;;;;;9.35;7.97;;;41.60;39.40;;;;;;4987627;28;20050;-63
2023/07/08 13:01:29;;;;;;;9.52;8.18;;;42.00;38.50;;;;;;4984906;28;20066;-63